Terminal Aerodrome Forecast
Issued by NWS Cleveland, OH

Home | Current Version | Previous Version | Text Only | Print | Product List | Glossary Off
Versions: 1 2 3 4 5 6 7 8 9 10 11 12 13 14 15 16 17 18 19

000
FTUS41 KCLE 182300
TAFYNG
TAF
KYNG 182340Z 1900/1924 32010KT 6SM -SHRA SCT012 OVC025
      TEMPO 1900/1904 3SM -SHRA OVC012
     FM190500 30008KT P6SM VCSH OVC020
     FM191600 30008KT P6SM BKN035=

USA.gov is the U.S. government's official web portal to all federal, state and local government web resources and services.